Aurora, Minnesota
Current Conditions -  °F | °C
As of 1:11 AM on Friday 19 Dec 2014 (Local Time) from KEVM Reporting Station
Overcast Overcast  
Wind Chill: 23°   Ceiling: 1500
Heat Index: 23°   Visibility: 10mi
Dew Point: 19°   Wind: 3mph
Humidity: 86%   Direction: 160°SSE
Pressure: 30.21"   Gusts: NA
Location:  47.53°N, 92.24°W
Report Text: KEVM 190711Z AUTO 16003KT 10SM OVC015 M05/M07 A3021 RMK AO2
Loading
Personal Weather Stations






























Interactive Weather Map New forecast layout! Learn more

10-Day Weather Forecast

Advertisements
Track Severe Weather on mobile